createdAt,value
2022-07-29T02:59:46.668Z,100813.58
2022-07-29T03:02:33.188Z,100811.77
2022-07-29T03:05:04.937Z,100812.63
2022-07-29T03:07:54.558Z,100812.56
2022-07-29T03:10:24.295Z,100810.08
2022-07-29T03:12:55.389Z,100807.83
2022-07-29T03:15:26.532Z,100804.41
2022-07-29T03:23:35.170Z,100806.08
2022-07-29T03:26:06.312Z,100806.03
2022-07-29T03:28:49.491Z,100807.20
2022-07-29T03:31:19.157Z,100807.44
2022-07-29T03:33:48.465Z,100807.13
2022-07-29T03:36:18.307Z,100810.83
2022-07-29T03:39:02.599Z,100816.09
2022-07-29T03:41:33.738Z,100813.30
2022-07-29T03:44:05.983Z,100810.61
2022-07-29T03:46:37.558Z,100811.17
2022-07-29T03:49:09.550Z,100812.27
2022-07-29T03:51:52.516Z,100815.20
2022-07-29T03:54:22.409Z,100815.58
2022-07-29T03:57:08.593Z,100818.98
2022-07-29T03:59:39.562Z,100823.88
2022-07-29T04:02:14.410Z,100817.67
2022-07-29T04:04:44.628Z,100820.04
2022-07-29T04:07:16.085Z,100816.20
2022-07-29T04:09:45.213Z,100813.81
2022-07-29T04:12:14.694Z,100815.17
2022-07-29T04:14:44.385Z,100812.26
2022-07-29T04:17:14.122Z,100809.05
2022-07-29T04:19:43.184Z,100808.85
2022-07-29T04:22:12.888Z,100808.27
2022-07-29T04:24:44.417Z,100805.34
2022-07-29T04:27:27.299Z,100805.87
2022-07-29T04:33:08.931Z,100799.55
2022-07-29T04:35:50.189Z,100802.50
2022-07-29T04:38:23.339Z,100807.09
2022-07-29T04:40:53.097Z,100813.56
2022-07-29T04:46:09.063Z,100808.15
2022-07-29T04:48:38.581Z,100808.90
2022-07-29T04:51:08.286Z,100809.57
2022-07-29T04:53:37.937Z,100810.46
2022-07-29T04:56:07.277Z,100805.15
2022-07-29T04:58:37.742Z,100798.05
2022-07-29T05:01:07.440Z,100798.97
2022-07-29T05:03:36.950Z,100799.91
2022-07-29T05:06:19.625Z,100800.83
2022-07-29T05:08:49.375Z,100800.15
2022-07-29T05:11:21.843Z,100802.80
2022-07-29T05:13:52.874Z,100804.73
2022-07-29T05:16:36.307Z,100813.20
2022-07-29T05:19:08.595Z,100809.38
2022-07-29T05:21:53.867Z,100802.33
2022-07-29T05:24:23.464Z,100809.11
2022-07-29T05:30:10.205Z,100811.56
2022-07-29T05:32:44.066Z,100813.04
2022-07-29T05:35:17.400Z,100807.05
2022-07-29T05:37:54.679Z,100807.98
2022-07-29T05:40:27.006Z,100808.74
2022-07-29T05:43:09.908Z,100808.17
2022-07-29T05:45:49.236Z,100807.60
2022-07-29T05:48:20.149Z,100804.41
2022-07-29T05:50:49.833Z,100802.06
2022-07-29T05:53:20.755Z,100809.16
2022-07-29T05:55:51.272Z,100807.17
2022-07-29T05:58:27.280Z,100815.14
2022-07-29T06:01:00.730Z,100816.11
2022-07-29T06:03:43.209Z,100814.77
2022-07-29T06:06:13.426Z,100813.05
2022-07-29T06:08:56.354Z,100812.04
2022-07-29T06:11:25.880Z,100808.52
2022-07-29T06:13:55.592Z,100805.23
2022-07-29T06:16:38.796Z,100805.64
2022-07-29T06:21:51.853Z,100814.55
2022-07-29T06:24:21.895Z,100811.52
2022-07-29T06:27:04.772Z,100810.55
2022-07-29T06:29:34.318Z,100809.94
2022-07-29T06:32:04.401Z,100813.89
2022-07-29T06:34:48.889Z,100820.10
2022-07-29T06:37:19.572Z,100822.73
2022-07-29T06:39:49.567Z,100822.08
2022-07-29T06:42:18.557Z,100821.20
2022-07-29T06:45:04.918Z,100823.44
2022-07-29T06:47:37.065Z,100823.19
2022-07-29T06:50:19.978Z,100823.04
2022-07-29T06:52:49.992Z,100820.27
2022-07-29T06:55:32.459Z,100821.02
2022-07-29T06:58:01.637Z,100821.09
2022-07-29T07:00:31.150Z,100818.73
2022-07-29T07:03:00.411Z,100821.74
2022-07-29T07:05:29.557Z,100822.52
2022-07-29T07:07:59.230Z,100826.44
2022-07-29T07:10:29.146Z,100819.21
2022-07-29T07:12:58.424Z,100814.27
2022-07-29T07:15:39.264Z,100815.03
2022-07-29T07:18:09.116Z,100813.33
2022-07-29T07:20:51.730Z,100806.64
2022-07-29T07:23:20.598Z,100805.40
2022-07-29T07:25:49.622Z,100807.50
2022-07-29T07:28:24.626Z,100806.81
2022-07-29T07:31:34.812Z,100803.84
2022-07-29T07:34:09.054Z,100805.19
2022-07-29T07:36:51.842Z,100805.36
2022-07-29T07:39:21.407Z,100807.15
2022-07-29T07:41:51.068Z,100803.27
2022-07-29T07:44:46.318Z,100804.17
2022-07-29T07:47:25.179Z,100802.55
2022-07-29T07:50:18.226Z,100801.58
2022-07-29T07:53:03.742Z,100803.67
2022-07-29T07:56:00.010Z,100805.26
2022-07-29T07:58:22.580Z,100805.51
2022-07-29T08:00:52.251Z,100802.55
2022-07-29T08:03:21.742Z,100802.98
2022-07-29T08:05:53.064Z,100806.88
2022-07-29T08:08:22.111Z,100809.53
2022-07-29T08:10:53.719Z,100812.90
2022-07-29T08:13:37.478Z,100817.13
2022-07-29T08:16:14.446Z,100813.46
2022-07-29T08:18:46.824Z,100813.89
2022-07-29T08:21:29.739Z,100809.67
2022-07-29T08:24:18.199Z,100807.66
2022-07-29T08:26:48.016Z,100811.89
2022-07-29T08:29:30.351Z,100809.59
2022-07-29T08:31:59.733Z,100807.58
2022-07-29T08:34:30.333Z,100804.55
2022-07-29T08:37:13.886Z,100810.27
2022-07-29T08:39:42.856Z,100800.15
2022-07-29T08:42:13.418Z,100800.12
2022-07-29T08:44:42.910Z,100795.84
2022-07-29T08:47:16.188Z,100791.19
2022-07-29T08:49:46.827Z,100791.90
2022-07-29T08:52:17.562Z,100796.17
2022-07-29T08:54:48.808Z,100789.32
2022-07-29T08:57:19.138Z,100789.32
2022-07-29T09:00:08.097Z,100789.74
2022-07-29T09:02:59.907Z,100790.64
2022-07-29T09:05:30.557Z,100786.79
2022-07-29T09:08:18.039Z,100792.77
2022-07-29T09:10:47.609Z,100795.30
2022-07-29T09:13:30.672Z,100795.87
2022-07-29T09:18:56.749Z,100791.35
2022-07-29T09:21:44.807Z,100793.69
2022-07-29T09:24:14.886Z,100794.41
2022-07-29T09:26:46.156Z,100791.55
2022-07-29T09:29:21.100Z,100792.65
2022-07-29T09:31:52.538Z,100786.63
2022-07-29T09:34:35.122Z,100787.77
2022-07-29T09:37:30.517Z,100784.06
2022-07-29T09:39:59.559Z,100785.63
2022-07-29T09:42:42.046Z,100783.20
2022-07-29T09:45:13.025Z,100780.94
2022-07-29T09:47:51.946Z,100778.45
2022-07-29T09:50:25.108Z,100782.09
2022-07-29T09:52:57.619Z,100777.43
2022-07-29T09:55:26.654Z,100777.89
2022-07-29T09:58:25.304Z,100775.50
2022-07-29T10:01:08.783Z,100775.27
2022-07-29T10:03:57.333Z,100772.08
2022-07-29T10:06:26.303Z,100766.42
2022-07-29T10:09:10.772Z,100763.04
2022-07-29T10:11:49.131Z,100762.52
2022-07-29T10:14:19.744Z,100761.13
2022-07-29T10:17:03.738Z,100755.91
2022-07-29T10:19:47.838Z,100750.20
2022-07-29T10:22:36.808Z,100745.09
2022-07-29T10:25:07.054Z,100735.38
2022-07-29T10:27:38.104Z,100737.09
2022-07-29T10:30:08.539Z,100736.65
2022-07-29T10:32:54.190Z,100733.69
2022-07-29T10:35:45.719Z,100731.38
2022-07-29T10:38:30.441Z,100734.13
2022-07-29T10:41:32.081Z,100739.68
2022-07-29T10:44:25.224Z,100731.75
2022-07-29T10:46:55.874Z,100729.38
2022-07-29T10:49:30.335Z,100727.75
2022-07-29T10:52:13.313Z,100722.67
2022-07-29T10:54:56.824Z,100722.91
2022-07-29T10:57:53.994Z,100728.77
2022-07-29T11:00:29.228Z,100727.61
2022-07-29T11:02:59.799Z,100727.48
2022-07-29T11:05:59.633Z,100725.89
2022-07-29T11:08:43.943Z,100725.09
2022-07-29T11:11:22.210Z,100719.27
2022-07-29T11:13:53.674Z,100712.08
2022-07-29T11:16:25.615Z,100716.73
2022-07-29T11:19:13.829Z,100715.36
2022-07-29T11:22:05.411Z,100718.59
2022-07-29T11:24:36.028Z,100709.54
2022-07-29T11:27:28.592Z,100711.54
2022-07-29T11:30:14.573Z,100710.27
2022-07-29T11:32:48.659Z,100709.39
2022-07-29T11:38:24.277Z,100713.49
2022-07-29T11:41:20.931Z,100708.80
2022-07-29T11:44:02.701Z,100708.18
2022-07-29T11:49:45.641Z,100705.29
2022-07-29T11:52:38.255Z,100702.65
2022-07-29T11:55:24.042Z,100702.24
2022-07-29T11:58:04.254Z,100697.14
2022-07-29T12:00:35.158Z,100699.77
2022-07-29T12:03:34.784Z,100698.84
2022-07-29T12:06:18.186Z,100700.27
2022-07-29T12:09:02.263Z,100698.70
2022-07-29T12:11:34.848Z,100700.48
2022-07-29T12:14:36.165Z,100702.72
2022-07-29T12:17:06.438Z,100698.84
2022-07-29T12:19:45.160Z,100697.23
2022-07-29T12:22:25.937Z,100691.13
2022-07-29T12:25:02.183Z,100692.91
2022-07-29T12:28:03.580Z,100695.29
2022-07-29T12:30:51.709Z,100692.19
2022-07-29T12:33:36.538Z,100691.86
2022-07-29T12:36:07.182Z,100692.28
2022-07-29T12:38:37.738Z,100695.27
2022-07-29T12:41:06.646Z,100690.99
2022-07-29T12:43:36.714Z,100695.79
2022-07-29T12:46:24.539Z,100690.13
2022-07-29T12:49:07.150Z,100687.46
2022-07-29T12:51:40.153Z,100687.91
2022-07-29T12:54:22.682Z,100688.68
2022-07-29T12:57:07.906Z,100683.69
2022-07-29T13:00:15.218Z,100680.52
2022-07-29T13:03:00.293Z,100677.40
2022-07-29T13:08:37.746Z,100673.02
2022-07-29T13:11:10.972Z,100669.35
2022-07-29T13:14:03.095Z,100672.31
2022-07-29T13:16:59.487Z,100667.58
2022-07-29T13:20:08.834Z,100668.02
2022-07-29T13:22:41.718Z,100669.39
2022-07-29T13:25:12.567Z,100659.54
2022-07-29T13:27:42.699Z,100662.23
2022-07-29T13:30:13.141Z,100657.58
2022-07-29T13:32:45.953Z,100653.61
2022-07-29T13:35:16.482Z,100650.80
2022-07-29T13:38:02.613Z,100649.63
2022-07-29T13:40:37.114Z,100649.12
2022-07-29T13:43:13.158Z,100643.71
2022-07-29T13:45:57.394Z,100638.39
2022-07-29T13:48:27.096Z,100634.70
2022-07-29T13:50:58.563Z,100632.07
2022-07-29T13:53:31.137Z,100630.88
2022-07-29T13:56:01.011Z,100627.17
2022-07-29T13:58:31.066Z,100631.29
2022-07-29T14:01:01.271Z,100627.44
2022-07-29T14:03:31.283Z,100627.66
2022-07-29T14:06:01.738Z,100626.85
2022-07-29T14:08:35.230Z,100626.44
2022-07-29T14:11:21.049Z,100627.44
2022-07-29T14:13:53.984Z,100628.13
2022-07-29T14:16:24.009Z,100624.97
2022-07-29T14:21:40.744Z,100623.73
2022-07-29T14:24:17.698Z,100621.10
2022-07-29T14:27:06.879Z,100615.52
2022-07-29T14:29:40.048Z,100616.11
2022-07-29T14:32:18.592Z,100617.46
2022-07-29T14:34:50.363Z,100616.77
2022-07-29T14:37:22.989Z,100615.15
2022-07-29T14:39:52.952Z,100609.02
2022-07-29T14:42:24.091Z,100604.00
2022-07-29T14:44:56.779Z,100606.62
2022-07-29T14:47:27.241Z,100600.59
2022-07-29T14:49:57.317Z,100602.58
2022-07-29T14:52:27.357Z,100596.94
2022-07-29T14:57:43.343Z,100595.42
2022-07-29T15:00:13.779Z,100596.86
2022-07-29T15:03:01.486Z,100598.47
2022-07-29T15:05:32.891Z,100592.73
2022-07-29T15:08:06.971Z,100595.93
2022-07-29T15:10:41.006Z,100595.02
2022-07-29T15:16:00.207Z,100594.16
2022-07-29T15:18:30.517Z,100589.76
2022-07-29T15:21:03.664Z,100587.32
2022-07-29T15:23:34.001Z,100586.10
2022-07-29T15:26:06.764Z,100583.23
2022-07-29T15:28:40.741Z,100581.67
2022-07-29T15:34:15.534Z,100570.55
2022-07-29T15:36:53.565Z,100567.91
2022-07-29T15:39:24.938Z,100569.59
2022-07-29T15:41:56.443Z,100565.64
2022-07-29T15:44:29.571Z,100567.80
2022-07-29T15:47:06.507Z,100572.64
2022-07-29T15:49:50.760Z,100564.02
2022-07-29T15:52:27.103Z,100563.30
2022-07-29T15:57:41.646Z,100551.83
2022-07-29T16:00:12.344Z,100548.26
2022-07-29T16:05:31.417Z,100538.04
2022-07-29T16:08:01.260Z,100537.27
2022-07-29T16:10:31.786Z,100533.92
2022-07-29T16:13:04.064Z,100536.38
2022-07-29T16:15:34.455Z,100534.39
2022-07-29T16:18:05.422Z,100535.92
2022-07-29T16:23:19.992Z,100531.21
2022-07-29T16:25:59.766Z,100535.70
2022-07-29T16:28:43.768Z,100536.96
2022-07-29T16:31:27.852Z,100532.63
2022-07-29T16:33:57.816Z,100531.04
2022-07-29T16:36:28.594Z,100526.84
2022-07-29T16:38:58.424Z,100523.70
2022-07-29T16:41:28.604Z,100524.25
2022-07-29T16:44:01.201Z,100524.52
2022-07-29T16:46:35.301Z,100532.81
2022-07-29T16:51:49.647Z,100534.83
2022-07-29T16:54:23.412Z,100536.99
2022-07-29T16:56:56.176Z,100543.06
2022-07-29T16:59:27.105Z,100541.71
2022-07-29T17:02:00.354Z,100545.11
2022-07-29T17:04:35.857Z,100544.80
2022-07-29T17:07:05.864Z,100545.33
2022-07-29T17:09:35.857Z,100543.77
2022-07-29T17:12:08.907Z,100542.94
2022-07-29T17:14:40.741Z,100539.70
2022-07-29T17:17:20.969Z,100538.91
2022-07-29T17:20:10.398Z,100542.36
2022-07-29T17:22:41.199Z,100542.08
2022-07-29T17:25:21.051Z,100546.46
2022-07-29T17:27:56.394Z,100550.52
2022-07-29T17:30:49.840Z,100550.02
2022-07-29T17:33:19.361Z,100549.09
2022-07-29T17:36:07.528Z,100549.23
2022-07-29T17:38:37.365Z,100550.31
2022-07-29T17:41:06.631Z,100552.04
2022-07-29T17:43:38.637Z,100559.25
2022-07-29T17:46:09.419Z,100559.84
2022-07-29T17:48:38.397Z,100564.21
2022-07-29T17:51:08.305Z,100563.45
2022-07-29T17:53:38.212Z,100563.52
2022-07-29T17:56:09.538Z,100564.52
2022-07-29T17:58:44.352Z,100566.71
2022-07-29T18:01:13.540Z,100564.45
2022-07-29T18:03:43.531Z,100565.22
2022-07-29T18:06:12.383Z,100565.79
2022-07-29T18:08:41.328Z,100570.84
2022-07-29T18:11:09.972Z,100569.83
2022-07-29T18:13:43.799Z,100567.91
2022-07-29T18:16:12.525Z,100567.52
2022-07-29T18:18:41.903Z,100565.78
2022-07-29T18:21:11.141Z,100568.81
2022-07-29T18:23:53.498Z,100573.27
2022-07-29T18:26:22.102Z,100575.77
2022-07-29T18:28:59.625Z,100574.90
2022-07-29T18:31:28.479Z,100582.60
2022-07-29T18:34:00.048Z,100579.42
2022-07-29T18:36:29.307Z,100573.89
2022-07-29T18:38:57.993Z,100569.56
2022-07-29T18:41:26.840Z,100569.77
2022-07-29T18:43:55.453Z,100565.27
2022-07-29T18:46:24.227Z,100563.19
2022-07-29T18:48:54.562Z,100558.19
2022-07-29T18:51:24.477Z,100561.53
2022-07-29T18:53:53.025Z,100564.17
2022-07-29T18:56:22.756Z,100565.12
2022-07-29T18:58:52.087Z,100571.40
2022-07-29T19:01:21.328Z,100572.10
2022-07-29T19:03:50.163Z,100577.11
2022-07-29T19:06:22.715Z,100579.08
2022-07-29T19:08:54.698Z,100584.09
2022-07-29T19:11:23.781Z,100589.40
2022-07-29T19:16:36.105Z,100586.98
2022-07-29T19:19:06.213Z,100586.16
2022-07-29T19:21:34.982Z,100587.79
2022-07-29T19:24:06.901Z,100587.92
2022-07-29T19:26:42.522Z,100590.27
2022-07-29T19:29:15.225Z,100596.76
2022-07-29T19:31:44.831Z,100599.38
2022-07-29T19:34:14.343Z,100602.03
2022-07-29T19:36:43.775Z,100601.19
2022-07-29T19:39:13.462Z,100606.16
2022-07-29T19:41:43.313Z,100604.48
2022-07-29T19:44:12.763Z,100600.23
2022-07-29T19:46:55.981Z,100603.13
2022-07-29T19:52:23.067Z,100606.93
2022-07-29T19:54:52.570Z,100608.98
2022-07-29T19:57:21.982Z,100612.19
2022-07-29T19:59:53.821Z,100615.91
2022-07-29T20:02:23.044Z,100612.72
2022-07-29T20:04:56.235Z,100608.27
2022-07-29T20:07:26.158Z,100605.98
2022-07-29T20:09:55.731Z,100608.20
2022-07-29T20:12:24.839Z,100607.80
2022-07-29T20:14:54.755Z,100607.45
2022-07-29T20:17:24.311Z,100610.54
2022-07-29T20:19:53.765Z,100610.34
2022-07-29T20:22:23.710Z,100610.71
2022-07-29T20:24:56.131Z,100609.98
2022-07-29T20:27:25.280Z,100611.04
2022-07-29T20:29:54.614Z,100610.16
2022-07-29T20:32:30.283Z,100612.18
2022-07-29T20:34:59.624Z,100613.77
2022-07-29T20:37:29.060Z,100612.35
2022-07-29T20:42:40.934Z,100615.77
2022-07-29T20:45:14.966Z,100617.21
2022-07-29T20:50:27.455Z,100624.70
2022-07-29T20:53:11.601Z,100625.65
2022-07-29T20:55:41.081Z,100625.45
2022-07-29T20:58:10.831Z,100621.20
2022-07-29T21:00:40.263Z,100623.29
2022-07-29T21:03:09.632Z,100628.88
2022-07-29T21:05:54.903Z,100627.28
2022-07-29T21:08:45.235Z,100629.20
2022-07-29T21:11:44.228Z,100624.95
2022-07-29T21:14:43.324Z,100623.63
2022-07-29T21:17:16.261Z,100627.23
2022-07-29T21:19:49.007Z,100621.24
2022-07-29T21:22:19.018Z,100619.39
2022-07-29T21:24:53.961Z,100614.09
2022-07-29T21:27:56.846Z,100616.52
2022-07-29T21:30:38.525Z,100608.95
2022-07-29T21:33:22.610Z,100605.48
2022-07-29T21:36:46.410Z,100603.17
2022-07-29T21:39:07.597Z,100606.38
2022-07-29T21:41:42.095Z,100610.16
2022-07-29T21:44:11.779Z,100605.65
2022-07-29T21:46:41.388Z,100604.13
2022-07-29T21:49:11.491Z,100607.87
2022-07-29T21:52:16.536Z,100608.00
2022-07-29T21:55:04.200Z,100606.45
2022-07-29T21:57:43.247Z,100605.80
2022-07-29T22:00:26.149Z,100608.04
2022-07-29T22:03:06.288Z,100609.98
2022-07-29T22:05:36.104Z,100609.63
2022-07-29T22:08:31.934Z,100610.31
2022-07-29T22:11:14.441Z,100607.57
2022-07-29T22:13:55.513Z,100608.20
2022-07-29T22:16:32.141Z,100604.23
2022-07-29T22:21:51.156Z,100604.90
2022-07-29T22:24:21.542Z,100602.49
2022-07-29T22:26:51.232Z,100601.77
2022-07-29T22:29:20.930Z,100604.04
2022-07-29T22:31:50.892Z,100603.23
2022-07-29T22:34:23.446Z,100603.67
2022-07-29T22:36:53.529Z,100599.61
2022-07-29T22:39:38.207Z,100594.69
2022-07-29T22:42:20.247Z,100599.96
2022-07-29T22:45:16.819Z,100598.80
2022-07-29T22:48:30.683Z,100593.92
2022-07-29T22:51:18.173Z,100590.09
2022-07-29T22:53:56.688Z,100585.38
2022-07-29T22:59:14.853Z,100576.48
2022-07-29T23:01:54.838Z,100574.33
2022-07-29T23:04:26.489Z,100582.98
2022-07-29T23:06:58.665Z,100582.55
2022-07-29T23:09:29.056Z,100578.45
2022-07-29T23:11:59.042Z,100576.80
2022-07-29T23:14:29.098Z,100576.88
2022-07-29T23:16:59.074Z,100573.95
2022-07-29T23:19:28.905Z,100574.00
2022-07-29T23:22:00.778Z,100576.55
2022-07-29T23:24:30.457Z,100577.05
2022-07-29T23:27:00.729Z,100574.77
2022-07-29T23:29:33.842Z,100574.65
2022-07-29T23:32:06.989Z,100578.30
2022-07-29T23:34:37.095Z,100579.77
2022-07-29T23:37:07.425Z,100581.80
2022-07-29T23:39:37.598Z,100586.79
2022-07-29T23:42:09.118Z,100582.56
2022-07-29T23:44:39.128Z,100586.56
2022-07-29T23:47:09.166Z,100582.45
2022-07-29T23:52:27.289Z,100581.62
2022-07-29T23:55:36.371Z,100583.80
2022-07-29T23:58:11.232Z,100579.39
